createdAt,value
2022-11-07T00:00:49.915Z,9.48
2022-11-07T00:03:19.074Z,9.51
2022-11-07T00:05:47.739Z,9.48
2022-11-07T00:08:16.236Z,9.43
2022-11-07T00:10:45.265Z,9.46
2022-11-07T00:13:15.383Z,9.47
2022-11-07T00:15:44.044Z,9.49
2022-11-07T00:18:13.019Z,9.50
2022-11-07T00:20:41.795Z,9.49
2022-11-07T00:23:10.258Z,9.50
2022-11-07T00:25:38.785Z,9.53
2022-11-07T00:28:07.735Z,9.53
2022-11-07T00:30:37.649Z,9.54
2022-11-07T00:33:06.334Z,9.55
2022-11-07T00:35:35.269Z,9.57
2022-11-07T00:38:03.918Z,9.57
2022-11-07T00:40:32.764Z,9.59
2022-11-07T00:43:01.209Z,9.58
2022-11-07T00:45:29.747Z,9.59
2022-11-07T00:47:59.682Z,9.59
2022-11-07T00:50:28.161Z,9.64
2022-11-07T00:52:58.964Z,9.64
2022-11-07T00:55:28.032Z,9.63
2022-11-07T00:57:57.379Z,9.66
2022-11-07T01:00:26.275Z,9.65
2022-11-07T01:03:09.562Z,9.65
2022-11-07T01:05:40.202Z,9.65
2022-11-07T01:08:08.727Z,9.67
2022-11-07T01:10:42.613Z,9.67
2022-11-07T01:13:11.788Z,9.68
2022-11-07T01:15:42.927Z,9.70
2022-11-07T01:18:11.461Z,9.72
2022-11-07T01:20:42.127Z,9.72
2022-11-07T01:23:10.954Z,9.73
2022-11-07T01:25:40.560Z,9.73
2022-11-07T01:28:11.186Z,9.75
2022-11-07T01:30:41.049Z,9.78
2022-11-07T01:33:10.637Z,9.77
2022-11-07T01:35:41.840Z,9.78
2022-11-07T01:38:10.266Z,9.80
2022-11-07T01:40:57.384Z,9.83
2022-11-07T01:43:44.279Z,9.82
2022-11-07T01:46:13.194Z,9.83
2022-11-07T01:48:45.970Z,9.84
2022-11-07T01:51:18.404Z,9.85
2022-11-07T01:53:47.693Z,9.86
2022-11-07T01:56:20.159Z,9.87
2022-11-07T01:58:49.655Z,9.87
2022-11-07T02:01:19.467Z,9.87
2022-11-07T02:03:49.795Z,9.89
2022-11-07T02:06:29.162Z,9.91
2022-11-07T02:08:57.669Z,9.92
2022-11-07T02:11:26.331Z,9.91
2022-11-07T02:13:55.595Z,9.92
2022-11-07T02:16:24.318Z,9.93
2022-11-07T02:18:53.056Z,9.94
2022-11-07T02:21:41.983Z,9.94
2022-11-07T02:24:27.213Z,9.96
2022-11-07T02:26:58.459Z,9.97
2022-11-07T02:29:29.078Z,9.98
2022-11-07T02:32:07.125Z,10.00
2022-11-07T02:34:36.426Z,10.01
2022-11-07T02:37:11.912Z,10.04
2022-11-07T02:39:42.465Z,10.05
2022-11-07T02:42:11.719Z,10.06
2022-11-07T02:44:40.403Z,10.05
2022-11-07T02:47:08.984Z,10.09
2022-11-07T02:49:37.395Z,10.11
2022-11-07T02:52:06.722Z,10.15
2022-11-07T02:54:36.106Z,10.17
2022-11-07T02:57:06.465Z,10.23
2022-11-07T02:59:34.963Z,10.24
2022-11-07T03:02:04.037Z,10.26
2022-11-07T03:04:32.530Z,10.28
2022-11-07T03:07:01.534Z,10.28
2022-11-07T03:09:29.940Z,10.30
2022-11-07T03:11:58.403Z,10.32
2022-11-07T03:14:28.300Z,10.34
2022-11-07T03:16:56.811Z,10.35
2022-11-07T03:19:25.461Z,10.39
2022-11-07T03:21:56.712Z,10.38
2022-11-07T03:24:25.322Z,10.42
2022-11-07T03:26:56.979Z,10.47
2022-11-07T03:29:25.694Z,10.50
2022-11-07T03:31:55.429Z,10.52
2022-11-07T03:34:24.551Z,10.53
2022-11-07T03:36:53.158Z,10.52
2022-11-07T03:39:25.642Z,10.55
2022-11-07T03:41:55.755Z,10.56
2022-11-07T03:44:24.435Z,10.57
2022-11-07T03:46:54.903Z,10.58
2022-11-07T03:49:24.207Z,10.61
2022-11-07T03:51:52.764Z,10.63
2022-11-07T03:54:21.781Z,10.65
2022-11-07T03:56:50.309Z,10.67
2022-11-07T03:59:18.822Z,10.68
2022-11-07T04:01:48.428Z,10.69
2022-11-07T04:04:18.462Z,10.69
2022-11-07T04:06:47.542Z,10.71
2022-11-07T04:09:16.203Z,10.71
2022-11-07T04:12:01.719Z,10.74
2022-11-07T04:14:48.252Z,10.75
2022-11-07T04:17:19.946Z,10.75
2022-11-07T04:19:52.186Z,10.75
2022-11-07T04:22:20.670Z,10.75
2022-11-07T04:24:49.385Z,10.73
2022-11-07T04:27:36.530Z,10.72
2022-11-07T04:30:20.184Z,10.71
2022-11-07T04:32:49.758Z,10.68
2022-11-07T04:35:22.398Z,10.68
2022-11-07T04:37:51.004Z,10.70
2022-11-07T04:40:20.329Z,10.72
2022-11-07T04:42:49.857Z,10.72
2022-11-07T04:45:19.191Z,10.74
2022-11-07T04:47:48.746Z,10.76
2022-11-07T04:50:21.067Z,10.75
2022-11-07T04:52:50.210Z,10.76
2022-11-07T04:55:22.114Z,10.76
2022-11-07T04:57:50.671Z,10.79
2022-11-07T05:00:21.654Z,10.77
2022-11-07T05:02:51.240Z,10.80
2022-11-07T05:05:22.184Z,10.80
2022-11-07T05:07:50.897Z,10.80
2022-11-07T05:10:24.426Z,10.80
2022-11-07T05:12:53.616Z,10.81
2022-11-07T05:15:22.786Z,10.85
2022-11-07T05:17:52.004Z,10.84
2022-11-07T05:20:32.172Z,10.85
2022-11-07T05:23:15.857Z,10.84
2022-11-07T05:25:47.615Z,10.86
2022-11-07T05:28:23.919Z,10.87
2022-11-07T05:31:00.113Z,10.87
2022-11-07T05:33:29.491Z,10.88
2022-11-07T05:36:10.054Z,10.86
2022-11-07T05:38:38.712Z,10.86
2022-11-07T05:41:07.304Z,10.89
2022-11-07T05:43:35.719Z,10.87
2022-11-07T05:46:04.789Z,10.88
2022-11-07T05:48:33.568Z,10.88
2022-11-07T05:51:03.661Z,10.89
2022-11-07T05:53:32.352Z,10.88
2022-11-07T05:56:01.292Z,10.88
2022-11-07T05:58:29.884Z,10.88
2022-11-07T06:01:03.289Z,10.83
2022-11-07T06:03:31.975Z,10.84
2022-11-07T06:06:02.138Z,10.84
2022-11-07T06:08:30.723Z,10.84
2022-11-07T06:10:59.677Z,10.84
2022-11-07T06:13:29.175Z,10.85
2022-11-07T06:15:59.427Z,10.86
2022-11-07T06:18:27.876Z,10.85
2022-11-07T06:20:56.376Z,10.86
2022-11-07T06:23:26.551Z,10.86
2022-11-07T06:25:55.360Z,10.86
2022-11-07T06:28:23.965Z,10.88
2022-11-07T06:30:52.787Z,10.88
2022-11-07T06:33:21.384Z,10.89
2022-11-07T06:35:50.137Z,10.88
2022-11-07T06:38:18.661Z,10.87
2022-11-07T06:40:48.551Z,10.88
2022-11-07T06:43:20.799Z,10.87
2022-11-07T06:45:50.263Z,10.88
2022-11-07T06:48:18.725Z,10.90
2022-11-07T06:50:47.309Z,10.88
2022-11-07T06:53:16.150Z,10.89
2022-11-07T06:55:44.947Z,10.90
2022-11-07T06:58:14.824Z,10.90
2022-11-07T07:00:43.452Z,10.90
2022-11-07T07:03:13.497Z,10.90
2022-11-07T07:05:42.256Z,10.92
2022-11-07T07:08:14.913Z,10.93
2022-11-07T07:10:46.286Z,10.93
2022-11-07T07:13:16.614Z,10.94
2022-11-07T07:15:53.976Z,10.94
2022-11-07T07:18:23.316Z,10.95
2022-11-07T07:20:54.441Z,10.96
2022-11-07T07:23:23.257Z,10.95
2022-11-07T07:25:52.925Z,10.95
2022-11-07T07:28:23.466Z,10.97
2022-11-07T07:30:52.325Z,10.98
2022-11-07T07:33:20.999Z,11.00
2022-11-07T07:35:49.623Z,11.00
2022-11-07T07:38:18.478Z,11.02
2022-11-07T07:40:46.904Z,11.02
2022-11-07T07:43:15.746Z,11.01
2022-11-07T07:45:45.972Z,11.01
2022-11-07T07:48:14.462Z,11.01
2022-11-07T07:50:43.066Z,11.00
2022-11-07T07:53:11.540Z,10.99
2022-11-07T07:55:40.102Z,11.01
2022-11-07T07:58:08.670Z,11.02
2022-11-07T08:00:37.875Z,11.01
2022-11-07T08:03:10.852Z,11.01
2022-11-07T08:05:40.771Z,11.03
2022-11-07T08:08:10.480Z,11.03
2022-11-07T08:10:43.295Z,11.01
2022-11-07T08:13:12.049Z,11.00
2022-11-07T08:15:41.070Z,11.01
2022-11-07T08:18:10.978Z,11.01
2022-11-07T08:20:40.099Z,11.04
2022-11-07T08:23:16.495Z,11.00
2022-11-07T08:25:52.050Z,11.01
2022-11-07T08:28:22.702Z,11.02
2022-11-07T08:30:59.295Z,11.03
2022-11-07T08:33:29.478Z,11.02
2022-11-07T08:36:01.142Z,11.03
2022-11-07T08:38:32.265Z,11.00
2022-11-07T08:41:01.688Z,11.01
2022-11-07T08:43:30.714Z,11.02
2022-11-07T08:45:59.233Z,11.03
2022-11-07T08:48:29.129Z,11.03
2022-11-07T08:50:59.559Z,11.03
2022-11-07T08:53:29.062Z,11.01
2022-11-07T08:56:04.048Z,11.03
2022-11-07T08:58:32.904Z,11.04
2022-11-07T09:01:01.597Z,11.03
2022-11-07T09:03:45.009Z,11.04
2022-11-07T09:06:15.322Z,11.05
2022-11-07T09:08:43.796Z,11.04
2022-11-07T09:11:15.679Z,11.04
2022-11-07T09:13:44.865Z,11.06
2022-11-07T09:16:17.512Z,11.06
2022-11-07T09:18:49.566Z,11.05
2022-11-07T09:21:22.623Z,11.03
2022-11-07T09:23:51.927Z,11.04
2022-11-07T09:26:20.539Z,11.05
2022-11-07T09:28:52.332Z,11.07
2022-11-07T09:31:23.242Z,11.08
2022-11-07T09:33:53.228Z,11.07
2022-11-07T09:36:24.297Z,11.08
2022-11-07T09:38:56.329Z,11.10
2022-11-07T09:41:45.109Z,11.13
2022-11-07T09:44:51.674Z,11.10
2022-11-07T09:47:26.929Z,11.13
2022-11-07T09:50:01.875Z,11.14
2022-11-07T09:52:40.686Z,11.14
2022-11-07T09:55:22.077Z,11.17
2022-11-07T09:57:54.134Z,11.16
2022-11-07T10:00:33.268Z,11.18
2022-11-07T10:03:03.509Z,11.19
2022-11-07T10:05:48.362Z,11.19
2022-11-07T10:08:26.913Z,11.17
2022-11-07T10:11:02.054Z,11.19
2022-11-07T10:14:00.705Z,11.20
2022-11-07T10:16:49.041Z,11.22
2022-11-07T10:19:35.415Z,11.22
2022-11-07T10:22:24.677Z,11.24
2022-11-07T10:25:21.404Z,11.27
2022-11-07T10:28:03.808Z,11.29
2022-11-07T10:30:32.346Z,11.33
2022-11-07T10:33:12.127Z,11.36
2022-11-07T10:35:47.905Z,11.38
2022-11-07T10:38:27.575Z,11.39
2022-11-07T10:40:56.465Z,11.42
2022-11-07T10:43:35.698Z,11.43
2022-11-07T10:46:07.949Z,11.45
2022-11-07T10:48:36.829Z,11.46
2022-11-07T10:51:05.570Z,11.48
2022-11-07T10:53:45.407Z,11.49
2022-11-07T10:56:15.999Z,11.53
2022-11-07T10:58:48.081Z,11.58
2022-11-07T11:01:26.251Z,11.62
2022-11-07T11:03:55.379Z,11.67
2022-11-07T11:06:31.723Z,11.69
2022-11-07T11:09:17.285Z,11.74
2022-11-07T11:11:52.889Z,11.77
2022-11-07T11:14:22.840Z,11.81
2022-11-07T11:16:57.315Z,11.86
2022-11-07T11:19:28.943Z,11.88
2022-11-07T11:22:00.017Z,11.91
2022-11-07T11:24:38.561Z,11.92
2022-11-07T11:27:16.602Z,11.91
2022-11-07T11:29:55.983Z,11.92
2022-11-07T11:32:32.518Z,11.94
2022-11-07T11:35:18.254Z,11.93
2022-11-07T11:37:54.701Z,11.95
2022-11-07T11:40:26.566Z,11.96
2022-11-07T11:43:05.364Z,11.97
2022-11-07T11:46:00.417Z,12.01
2022-11-07T11:48:36.630Z,11.97
2022-11-07T11:51:16.175Z,11.99
2022-11-07T11:53:44.669Z,12.01
2022-11-07T11:56:39.075Z,12.06
2022-11-07T11:59:49.981Z,12.06
2022-11-07T12:03:12.137Z,12.09
2022-11-07T12:06:17.298Z,12.09
2022-11-07T12:09:29.257Z,12.10
2022-11-07T12:12:25.314Z,12.13
2022-11-07T12:15:33.133Z,12.10
2022-11-07T12:18:16.794Z,12.14
2022-11-07T12:21:04.018Z,12.07
2022-11-07T12:23:53.171Z,12.08
2022-11-07T12:26:31.590Z,12.09
2022-11-07T12:29:21.301Z,12.11
2022-11-07T12:32:06.626Z,12.15
2022-11-07T12:35:09.369Z,12.17
2022-11-07T12:38:08.119Z,12.22
2022-11-07T12:40:52.813Z,12.18
2022-11-07T12:43:46.296Z,12.16
2022-11-07T12:46:27.664Z,12.19
2022-11-07T12:49:51.952Z,12.21
2022-11-07T12:52:42.628Z,12.16
2022-11-07T12:55:24.001Z,12.17
2022-11-07T12:57:56.371Z,12.20
2022-11-07T13:00:29.864Z,12.19
2022-11-07T13:03:54.671Z,12.21
2022-11-07T13:06:37.087Z,12.21
2022-11-07T13:09:20.565Z,12.16
2022-11-07T13:12:00.177Z,12.18
2022-11-07T13:14:34.694Z,12.21
2022-11-07T13:17:20.255Z,12.24
2022-11-07T13:20:01.588Z,12.27
2022-11-07T13:22:36.301Z,12.24
2022-11-07T13:25:26.206Z,12.27
2022-11-07T13:28:30.457Z,12.30
2022-11-07T13:31:06.573Z,12.32
2022-11-07T13:33:37.377Z,12.31
2022-11-07T13:36:28.548Z,12.29
2022-11-07T13:39:01.438Z,12.33
2022-11-07T13:41:31.958Z,12.33
2022-11-07T13:44:04.566Z,12.35
2022-11-07T13:46:50.417Z,12.33
2022-11-07T13:49:24.600Z,12.30
2022-11-07T13:51:59.544Z,12.33
2022-11-07T13:54:39.219Z,12.35
2022-11-07T13:57:16.504Z,12.37
2022-11-07T13:59:51.899Z,12.39
2022-11-07T14:02:22.571Z,12.40
2022-11-07T14:05:15.182Z,12.41
2022-11-07T14:07:49.345Z,12.42
2022-11-07T14:10:28.003Z,12.42
2022-11-07T14:13:07.430Z,12.45
2022-11-07T14:15:37.697Z,12.44
2022-11-07T14:18:07.282Z,12.47
2022-11-07T14:20:35.800Z,12.50
2022-11-07T14:23:13.413Z,12.52
2022-11-07T14:25:42.152Z,12.56
2022-11-07T14:28:17.942Z,12.57
2022-11-07T14:30:53.063Z,12.56
2022-11-07T14:33:24.746Z,12.56
2022-11-07T14:35:53.949Z,12.58
2022-11-07T14:38:26.310Z,12.59
2022-11-07T14:40:59.113Z,12.60
2022-11-07T14:43:30.965Z,12.61
2022-11-07T14:46:14.053Z,12.63
2022-11-07T14:48:45.309Z,12.63
2022-11-07T14:51:19.027Z,12.65
2022-11-07T14:54:00.755Z,12.66
2022-11-07T14:56:35.374Z,12.63
2022-11-07T14:59:05.649Z,12.63
2022-11-07T15:01:35.843Z,12.61
2022-11-07T15:04:17.677Z,12.65
2022-11-07T15:06:47.095Z,12.64
2022-11-07T15:09:17.443Z,12.66
2022-11-07T15:12:00.650Z,12.63
2022-11-07T15:14:35.622Z,12.63
2022-11-07T15:17:05.544Z,12.63
2022-11-07T15:19:36.803Z,12.65
2022-11-07T15:22:07.604Z,12.63
2022-11-07T15:24:44.361Z,12.65
2022-11-07T15:27:23.004Z,12.59
2022-11-07T15:29:55.173Z,12.59
2022-11-07T15:32:27.206Z,12.63
2022-11-07T15:35:12.288Z,12.59
2022-11-07T15:37:55.048Z,12.57
2022-11-07T15:40:26.841Z,12.58
2022-11-07T15:42:55.527Z,12.58
2022-11-07T15:45:24.354Z,12.57
2022-11-07T15:47:53.065Z,12.58
2022-11-07T15:50:25.521Z,12.56
2022-11-07T15:52:55.501Z,12.54
2022-11-07T15:55:25.816Z,12.54
2022-11-07T15:57:55.769Z,12.54
2022-11-07T16:00:27.541Z,12.55
2022-11-07T16:02:56.524Z,12.54
2022-11-07T16:05:25.210Z,12.54
2022-11-07T16:07:53.689Z,12.53
2022-11-07T16:10:27.122Z,12.55
2022-11-07T16:12:58.719Z,12.54
2022-11-07T16:15:30.999Z,12.54
2022-11-07T16:17:59.526Z,12.54
2022-11-07T16:20:28.042Z,12.55
2022-11-07T16:22:56.559Z,12.53
2022-11-07T16:25:27.652Z,12.51
2022-11-07T16:28:00.469Z,12.53
2022-11-07T16:30:29.070Z,12.53
2022-11-07T16:32:57.774Z,12.52
2022-11-07T16:35:26.331Z,12.50
2022-11-07T16:37:55.190Z,12.50
2022-11-07T16:40:24.945Z,12.49
2022-11-07T16:42:54.815Z,12.47
2022-11-07T16:45:23.323Z,12.46
2022-11-07T16:47:51.795Z,12.47
2022-11-07T16:50:20.997Z,12.48
2022-11-07T16:52:50.017Z,12.47
2022-11-07T16:55:20.852Z,12.48
2022-11-07T16:57:49.788Z,12.46
2022-11-07T17:00:24.508Z,12.48
2022-11-07T17:02:53.146Z,12.49
2022-11-07T17:05:22.098Z,12.49
2022-11-07T17:07:51.156Z,12.50
2022-11-07T17:10:20.474Z,12.48
2022-11-07T17:12:49.094Z,12.50
2022-11-07T17:15:20.127Z,12.49
2022-11-07T17:17:48.840Z,12.50
2022-11-07T17:20:49.075Z,12.50
2022-11-07T17:23:12.323Z,12.50
2022-11-07T17:25:41.342Z,12.49
2022-11-07T17:28:10.727Z,12.52
2022-11-07T17:30:40.706Z,12.50
2022-11-07T17:33:09.258Z,12.49
2022-11-07T17:35:39.021Z,12.48
2022-11-07T17:38:07.956Z,12.46
2022-11-07T17:40:36.876Z,12.47
2022-11-07T17:43:05.514Z,12.48
2022-11-07T17:45:34.870Z,12.48
2022-11-07T17:48:05.294Z,12.47
2022-11-07T17:50:33.771Z,12.47
2022-11-07T17:53:02.315Z,12.48
2022-11-07T17:55:30.942Z,12.46
2022-11-07T17:57:59.790Z,12.47
2022-11-07T18:00:28.685Z,12.49
2022-11-07T18:02:57.470Z,12.48
2022-11-07T18:05:33.361Z,12.48
2022-11-07T18:08:03.149Z,12.46
2022-11-07T18:10:32.128Z,12.48
2022-11-07T18:13:00.759Z,12.49
2022-11-07T18:15:29.406Z,12.47
2022-11-07T18:17:57.904Z,12.47
2022-11-07T18:20:29.170Z,12.47
2022-11-07T18:22:57.794Z,12.46
2022-11-07T18:25:27.585Z,12.48
2022-11-07T18:27:56.416Z,12.47
2022-11-07T18:30:25.514Z,12.47
2022-11-07T18:32:54.226Z,12.48
2022-11-07T18:35:23.170Z,12.46
2022-11-07T18:37:53.070Z,12.45
2022-11-07T18:40:21.784Z,12.44
2022-11-07T18:42:50.283Z,12.44
2022-11-07T18:45:18.949Z,12.43
2022-11-07T18:47:47.508Z,12.43
2022-11-07T18:50:16.808Z,12.43
2022-11-07T18:52:45.857Z,12.42
2022-11-07T18:55:15.988Z,12.42
2022-11-07T18:57:44.504Z,12.40
2022-11-07T19:00:15.250Z,12.41
2022-11-07T19:02:44.652Z,12.41
2022-11-07T19:05:13.154Z,12.40
2022-11-07T19:07:44.859Z,12.41
2022-11-07T19:10:16.317Z,12.39
2022-11-07T19:12:45.308Z,12.38
2022-11-07T19:15:14.934Z,12.40
2022-11-07T19:17:43.672Z,12.38
2022-11-07T19:20:13.289Z,12.38
2022-11-07T19:22:41.763Z,12.37
2022-11-07T19:25:11.074Z,12.36
2022-11-07T19:27:41.338Z,12.34
2022-11-07T19:30:11.974Z,12.32
2022-11-07T19:32:41.379Z,12.31
2022-11-07T19:35:10.678Z,12.26
2022-11-07T19:37:39.484Z,12.25
2022-11-07T19:40:10.175Z,12.18
2022-11-07T19:42:40.353Z,12.14
2022-11-07T19:45:10.035Z,12.13
2022-11-07T19:47:38.550Z,12.05
2022-11-07T19:50:08.186Z,12.04
2022-11-07T19:52:36.801Z,12.01
2022-11-07T19:55:06.949Z,11.99
2022-11-07T19:57:36.575Z,11.97
2022-11-07T20:00:10.774Z,11.95
2022-11-07T20:02:44.349Z,11.92
2022-11-07T20:05:13.534Z,11.90
2022-11-07T20:07:42.131Z,11.87
2022-11-07T20:10:10.982Z,11.85
2022-11-07T20:12:40.208Z,11.84
2022-11-07T20:15:12.192Z,11.80
2022-11-07T20:17:42.001Z,11.76
2022-11-07T20:20:13.906Z,11.73
2022-11-07T20:22:47.777Z,11.71
2022-11-07T20:25:17.084Z,11.69
2022-11-07T20:27:46.162Z,11.71
2022-11-07T20:30:16.769Z,11.72
2022-11-07T20:32:46.636Z,11.72
2022-11-07T20:35:15.861Z,11.66
2022-11-07T20:37:44.538Z,11.68
2022-11-07T20:40:14.813Z,11.66
2022-11-07T20:42:43.423Z,11.63
2022-11-07T20:45:13.396Z,11.60
2022-11-07T20:47:43.330Z,11.60
2022-11-07T20:50:11.946Z,11.59
2022-11-07T20:52:41.133Z,11.58
2022-11-07T20:55:10.163Z,11.56
2022-11-07T20:57:38.638Z,11.56
2022-11-07T21:00:08.895Z,11.53
2022-11-07T21:02:37.965Z,11.47
2022-11-07T21:05:17.765Z,11.39
2022-11-07T21:07:48.473Z,11.39
2022-11-07T21:10:17.942Z,11.37
2022-11-07T21:12:46.608Z,11.35
2022-11-07T21:15:15.512Z,11.29
2022-11-07T21:17:44.033Z,11.30
2022-11-07T21:20:15.004Z,11.27
2022-11-07T21:22:43.628Z,11.28
2022-11-07T21:25:12.252Z,11.26
2022-11-07T21:27:41.308Z,11.25
2022-11-07T21:30:13.064Z,11.24
2022-11-07T21:32:42.121Z,11.24
2022-11-07T21:35:11.915Z,11.25
2022-11-07T21:37:41.817Z,11.24
2022-11-07T21:40:13.323Z,11.25
2022-11-07T21:42:41.764Z,11.25
2022-11-07T21:45:12.341Z,11.27
2022-11-07T21:47:45.586Z,11.29
2022-11-07T21:50:42.502Z,11.30
2022-11-07T21:53:07.909Z,11.28
2022-11-07T21:55:36.714Z,11.29
2022-11-07T21:58:05.175Z,11.29
2022-11-07T22:00:36.636Z,11.27
2022-11-07T22:03:07.603Z,11.28
2022-11-07T22:05:39.513Z,11.27
2022-11-07T22:08:09.499Z,11.25
2022-11-07T22:10:38.302Z,11.22
2022-11-07T22:13:07.261Z,11.17
2022-11-07T22:15:36.245Z,11.14
2022-11-07T22:18:04.834Z,11.10
2022-11-07T22:20:33.340Z,11.03
2022-11-07T22:23:01.904Z,10.99
2022-11-07T22:25:33.817Z,10.94
2022-11-07T22:28:02.801Z,10.81
2022-11-07T22:30:31.486Z,10.72
2022-11-07T22:33:00.008Z,10.72
2022-11-07T22:35:28.550Z,10.73
2022-11-07T22:37:57.482Z,10.68
2022-11-07T22:40:26.065Z,10.60
2022-11-07T22:42:55.928Z,10.57
2022-11-07T22:45:24.465Z,10.49
2022-11-07T22:47:52.939Z,10.50
2022-11-07T22:50:21.635Z,10.49
2022-11-07T22:52:50.143Z,10.40
2022-11-07T22:55:18.710Z,10.33
2022-11-07T22:57:47.155Z,10.34
2022-11-07T23:00:22.206Z,10.31
2022-11-07T23:02:51.480Z,10.24
2022-11-07T23:05:20.895Z,10.25
2022-11-07T23:07:51.352Z,10.25
2022-11-07T23:10:20.974Z,10.23
2022-11-07T23:12:49.478Z,10.22
2022-11-07T23:15:19.945Z,10.17
2022-11-07T23:17:48.435Z,10.13
2022-11-07T23:20:30.693Z,10.08
2022-11-07T23:22:59.239Z,10.02
2022-11-07T23:25:27.765Z,9.98
2022-11-07T23:27:56.266Z,10.00
2022-11-07T23:30:26.186Z,9.92
2022-11-07T23:32:54.573Z,9.86
2022-11-07T23:35:23.600Z,9.80
2022-11-07T23:37:52.070Z,9.74
2022-11-07T23:40:21.016Z,9.74
2022-11-07T23:42:49.422Z,9.78
2022-11-07T23:45:35.865Z,9.73
2022-11-07T23:48:23.919Z,9.72
2022-11-07T23:51:04.288Z,9.68
2022-11-07T23:53:51.887Z,9.73
2022-11-07T23:56:21.991Z,9.70
2022-11-07T23:59:13.455Z,9.69
